createdAt,value
2018-02-15T00:01:15.301Z,-2.93
2018-02-15T00:02:15.301Z,-3.10
2018-02-15T00:04:08.692Z,-3.18
2018-02-15T00:05:08.670Z,-3.23
2018-02-15T00:07:02.040Z,-3.26
2018-02-15T00:08:02.037Z,-3.26
2018-02-15T00:09:55.429Z,-3.25
2018-02-15T00:10:55.406Z,-3.23
2018-02-15T00:12:48.817Z,-3.28
2018-02-15T00:13:48.772Z,-3.17
2018-02-15T00:15:42.150Z,-3.13
2018-02-15T00:16:42.143Z,-3.08
2018-02-15T00:18:35.534Z,-3.11
2018-02-15T00:19:35.509Z,-3.08
2018-02-15T00:21:28.881Z,-3.14
2018-02-15T00:22:28.880Z,-3.10
2018-02-15T00:24:22.274Z,-3.05
2018-02-15T00:25:22.247Z,-3.05
2018-02-15T00:27:15.625Z,-3.07
2018-02-15T00:28:15.616Z,-3.11
2018-02-15T00:30:09.022Z,-3.02
2018-02-15T00:31:08.996Z,-3.13
2018-02-15T00:33:02.392Z,-3.11
2018-02-15T00:34:02.365Z,-3.11
2018-02-15T00:35:55.736Z,-3.08
2018-02-15T00:36:55.736Z,-3.15
2018-02-15T00:38:49.129Z,-3.18
2018-02-15T00:39:49.104Z,-3.18
2018-02-15T00:41:42.526Z,-3.20
2018-02-15T00:42:42.479Z,-3.25
2018-02-15T00:44:35.874Z,-3.25
2018-02-15T00:45:35.849Z,-3.23
2018-02-15T00:47:29.261Z,-3.14
2018-02-15T00:48:29.257Z,-3.25
2018-02-15T00:50:22.654Z,-3.11
2018-02-15T00:51:22.626Z,-3.18
2018-02-15T00:53:16.023Z,-3.10
2018-02-15T00:54:15.999Z,-3.07
2018-02-15T00:56:09.369Z,-3.08
2018-02-15T00:57:09.376Z,-3.10
2018-02-15T00:59:02.762Z,-3.10
2018-02-15T01:00:02.735Z,-3.07
2018-02-15T01:01:56.105Z,-3.08
2018-02-15T01:02:56.104Z,-3.11
2018-02-15T01:04:49.501Z,-3.15
2018-02-15T01:05:49.472Z,-3.15
2018-02-15T01:07:42.861Z,-3.22
2018-02-15T01:08:42.843Z,-3.13
2018-02-15T01:10:36.215Z,-3.18
2018-02-15T01:11:36.209Z,-3.14
2018-02-15T01:13:29.599Z,-3.11
2018-02-15T01:14:29.590Z,-3.13
2018-02-15T01:16:22.950Z,-3.07
2018-02-15T01:17:22.957Z,-3.13
2018-02-15T01:19:16.348Z,-3.10
2018-02-15T01:20:16.327Z,-3.10
2018-02-15T01:22:09.702Z,-3.10
2018-02-15T01:23:09.695Z,-3.08
2018-02-15T01:25:03.100Z,-3.13
2018-02-15T01:26:03.076Z,-3.18
2018-02-15T01:27:56.445Z,-3.08
2018-02-15T01:28:56.443Z,-3.07
2018-02-15T01:30:49.831Z,-3.13
2018-02-15T01:31:49.811Z,-3.00
2018-02-15T01:33:43.218Z,-2.97
2018-02-15T01:34:43.184Z,-2.94
2018-02-15T01:36:36.553Z,-2.94
2018-02-15T01:37:36.551Z,-2.90
2018-02-15T01:39:29.940Z,-2.96
2018-02-15T01:40:29.919Z,-2.97
2018-02-15T01:42:23.290Z,-2.93
2018-02-15T01:43:23.286Z,-2.99
2018-02-15T01:45:16.688Z,-2.85
2018-02-15T01:46:16.655Z,-2.92
2018-02-15T01:48:10.028Z,-2.97
2018-02-15T01:49:10.024Z,-2.96
2018-02-15T01:51:03.422Z,-2.96
2018-02-15T01:52:03.398Z,-2.99
2018-02-15T01:53:56.765Z,-2.96
2018-02-15T01:54:56.764Z,-2.85
2018-02-15T01:56:50.153Z,-2.90
2018-02-15T01:57:50.132Z,-2.92
2018-02-15T01:59:43.507Z,-2.92
2018-02-15T02:00:43.506Z,-2.86
2018-02-15T02:02:36.893Z,-2.86
2018-02-15T02:03:36.873Z,-2.71
2018-02-15T02:05:30.253Z,-2.85
2018-02-15T02:06:30.255Z,-2.87
2018-02-15T02:08:23.684Z,-2.90
2018-02-15T02:09:23.619Z,-3.08
2018-02-15T02:11:16.989Z,-3.14
2018-02-15T02:12:16.988Z,-3.14
2018-02-15T02:14:10.376Z,-3.13
2018-02-15T02:15:10.354Z,-3.10
2018-02-15T02:17:03.755Z,-3.00
2018-02-15T02:18:03.727Z,-3.07
2018-02-15T02:19:57.098Z,-3.10
2018-02-15T02:20:57.095Z,-3.02
2018-02-15T02:22:50.483Z,-2.97
2018-02-15T02:23:50.464Z,-2.96
2018-02-15T02:25:43.834Z,-2.89
2018-02-15T02:26:43.832Z,-2.90
2018-02-15T02:28:37.281Z,-2.97
2018-02-15T02:29:37.261Z,-2.92
2018-02-15T02:31:30.634Z,-2.94
2018-02-15T02:32:30.630Z,-2.96
2018-02-15T02:34:24.021Z,-2.92
2018-02-15T02:35:24.003Z,-2.89
2018-02-15T02:37:17.372Z,-2.87
2018-02-15T02:38:17.370Z,-2.75
2018-02-15T02:40:10.762Z,-2.76
2018-02-15T02:41:10.740Z,-2.68
2018-02-15T02:43:04.109Z,-2.74
2018-02-15T02:44:04.105Z,-2.64
2018-02-15T02:45:57.500Z,-2.60
2018-02-15T02:46:57.477Z,-2.57
2018-02-15T02:48:50.848Z,-2.57
2018-02-15T02:49:50.846Z,-2.58
2018-02-15T02:51:44.235Z,-2.64
2018-02-15T02:52:44.232Z,-2.66
2018-02-15T02:54:37.588Z,-2.51
2018-02-15T02:55:37.592Z,-2.48
2018-02-15T02:57:30.975Z,-2.63
2018-02-15T02:58:30.956Z,-2.71
2018-02-15T03:00:24.333Z,-2.76
2018-02-15T03:01:24.325Z,-2.76
2018-02-15T03:03:17.715Z,-2.76
2018-02-15T03:04:17.697Z,-2.66
2018-02-15T03:06:11.077Z,-2.64
2018-02-15T03:07:11.077Z,-2.57
2018-02-15T03:09:04.464Z,-2.56
2018-02-15T03:10:04.446Z,-2.51
2018-02-15T03:11:57.816Z,-2.48
2018-02-15T03:12:57.816Z,-2.53
2018-02-15T03:14:51.206Z,-2.48
2018-02-15T03:15:51.185Z,-2.54
2018-02-15T03:17:44.558Z,-2.40
2018-02-15T03:18:44.555Z,-2.56
2018-02-15T03:20:37.945Z,-2.54
2018-02-15T03:21:37.926Z,-2.51
2018-02-15T03:23:31.359Z,-2.64
2018-02-15T03:24:31.296Z,-2.61
2018-02-15T03:26:24.678Z,-2.54
2018-02-15T03:27:24.677Z,-2.53
2018-02-15T03:29:18.082Z,-2.47
2018-02-15T03:30:18.050Z,-2.35
2018-02-15T03:32:11.422Z,-2.42
2018-02-15T03:33:11.419Z,-2.42
2018-02-15T03:35:04.811Z,-2.43
2018-02-15T03:36:04.788Z,-2.35
2018-02-15T03:37:58.162Z,-2.51
2018-02-15T03:38:58.159Z,-2.48
2018-02-15T03:40:51.700Z,-2.50
2018-02-15T03:41:51.587Z,-2.38
2018-02-15T03:43:44.968Z,-2.33
2018-02-15T03:44:44.956Z,-2.40
2018-02-15T03:46:38.348Z,-2.42
2018-02-15T03:47:38.329Z,-2.39
2018-02-15T03:49:31.698Z,-2.40
2018-02-15T03:50:31.697Z,-2.35
2018-02-15T03:52:25.091Z,-2.40
2018-02-15T03:53:25.069Z,-2.42
2018-02-15T03:55:18.441Z,-2.38
2018-02-15T03:56:18.440Z,-2.42
2018-02-15T03:58:11.829Z,-2.35
2018-02-15T03:59:11.808Z,-2.40
2018-02-15T04:01:05.182Z,-2.29
2018-02-15T04:02:05.180Z,-2.32
2018-02-15T04:03:58.571Z,-2.32
2018-02-15T04:04:58.552Z,-2.32
2018-02-15T04:06:51.923Z,-2.28
2018-02-15T04:07:51.924Z,-2.26
2018-02-15T04:09:45.310Z,-2.17
2018-02-15T04:10:45.296Z,-2.21
2018-02-15T04:12:38.685Z,-2.13
2018-02-15T04:13:38.666Z,-2.14
2018-02-15T04:15:32.034Z,-2.11
2018-02-15T04:16:32.037Z,-2.13
2018-02-15T04:18:25.438Z,-2.13
2018-02-15T04:19:25.424Z,-2.16
2018-02-15T04:21:18.799Z,-2.11
2018-02-15T04:22:18.793Z,-2.14
2018-02-15T04:24:12.183Z,-2.00
2018-02-15T04:25:12.155Z,-2.11
2018-02-15T04:27:05.528Z,-2.02
2018-02-15T04:28:05.526Z,-2.14
2018-02-15T04:29:58.947Z,-2.16
2018-02-15T04:30:58.925Z,-2.17
2018-02-15T04:32:52.297Z,-2.14
2018-02-15T04:33:52.295Z,-2.16
2018-02-15T04:35:45.698Z,-2.13
2018-02-15T04:36:45.679Z,-2.17
2018-02-15T04:38:39.053Z,-1.98
2018-02-15T04:39:39.050Z,-2.06
2018-02-15T04:41:32.444Z,-2.05
2018-02-15T04:42:32.444Z,-2.03
2018-02-15T04:44:25.799Z,-2.02
2018-02-15T04:45:25.796Z,-2.05
2018-02-15T04:47:19.182Z,-1.98
2018-02-15T04:48:19.163Z,-2.05
2018-02-15T04:50:12.544Z,-2.08
2018-02-15T04:51:12.534Z,-1.96
2018-02-15T04:53:05.923Z,-1.87
2018-02-15T04:54:05.911Z,-1.92
2018-02-15T04:55:59.279Z,-1.90
2018-02-15T04:56:59.288Z,-1.88
2018-02-15T04:58:52.676Z,-1.90
2018-02-15T04:59:52.656Z,-1.88
2018-02-15T05:01:46.049Z,-1.92
2018-02-15T05:02:46.030Z,-1.93
2018-02-15T05:04:39.405Z,-1.85
2018-02-15T05:05:39.402Z,-1.81
2018-02-15T05:07:32.792Z,-1.82
2018-02-15T05:08:32.772Z,-1.85
2018-02-15T05:10:26.150Z,-1.81
2018-02-15T05:11:26.142Z,-1.78
2018-02-15T05:13:19.540Z,-1.81
2018-02-15T05:14:19.514Z,-1.77
2018-02-15T05:16:12.889Z,-1.72
2018-02-15T05:17:12.888Z,-1.74
2018-02-15T05:19:06.289Z,-1.78
2018-02-15T05:20:06.270Z,-1.66
2018-02-15T05:21:59.646Z,-1.66
2018-02-15T05:22:59.641Z,-1.66
2018-02-15T05:24:53.038Z,-1.54
2018-02-15T05:25:53.058Z,-1.57
2018-02-15T05:27:46.389Z,-1.54
2018-02-15T05:28:46.387Z,-1.62
2018-02-15T05:30:39.777Z,-1.70
2018-02-15T05:31:39.760Z,-1.70
2018-02-15T05:33:33.136Z,-1.64
2018-02-15T05:34:33.130Z,-1.56
2018-02-15T05:36:26.522Z,-1.66
2018-02-15T05:37:26.501Z,-1.49
2018-02-15T05:39:19.887Z,-1.66
2018-02-15T05:40:19.885Z,-1.53
2018-02-15T05:42:13.282Z,-1.63
2018-02-15T05:43:13.261Z,-1.60
2018-02-15T05:45:06.636Z,-1.46
2018-02-15T05:46:06.635Z,-1.51
2018-02-15T05:48:00.029Z,-1.49
2018-02-15T05:49:00.009Z,-1.48
2018-02-15T05:50:53.403Z,-1.45
2018-02-15T05:51:53.387Z,-1.48
2018-02-15T05:53:46.756Z,-1.46
2018-02-15T05:54:46.755Z,-1.60
2018-02-15T05:56:40.147Z,-1.54
2018-02-15T05:57:40.131Z,-1.54
2018-02-15T05:59:33.504Z,-1.54
2018-02-15T06:00:33.507Z,-1.53
2018-02-15T06:02:26.894Z,-1.51
2018-02-15T06:03:26.969Z,-1.45
2018-02-15T06:05:22.535Z,-1.43
2018-02-15T06:06:22.392Z,-1.48
2018-02-15T06:08:16.050Z,-1.36
2018-02-15T06:09:15.811Z,-1.39
2018-02-15T06:11:09.159Z,-1.41
2018-02-15T06:12:09.128Z,-1.51
2018-02-15T06:14:02.621Z,-1.39
2018-02-15T06:15:02.560Z,-1.45
2018-02-15T06:16:56.024Z,-1.41
2018-02-15T06:17:55.895Z,-1.42
2018-02-15T06:19:49.491Z,-1.51
2018-02-15T06:20:49.301Z,-1.42
2018-02-15T06:22:42.729Z,-1.42
2018-02-15T06:23:42.713Z,-1.46
2018-02-15T06:25:37.138Z,-1.42
2018-02-15T06:26:37.058Z,-1.35
2018-02-15T06:28:30.618Z,-1.53
2018-02-15T06:29:30.430Z,-1.81
2018-02-15T06:31:24.048Z,-1.78
2018-02-15T06:32:23.790Z,-1.75
2018-02-15T06:34:17.349Z,-1.64
2018-02-15T06:35:17.217Z,-1.63
2018-02-15T06:37:10.694Z,-1.45
2018-02-15T06:38:10.533Z,-1.53
2018-02-15T06:40:04.999Z,-1.49
2018-02-15T06:41:04.933Z,-1.51
2018-02-15T06:42:58.434Z,-1.31
2018-02-15T06:43:58.315Z,-1.23
2018-02-15T06:45:51.680Z,-1.24
2018-02-15T06:46:51.680Z,-1.24
2018-02-15T06:48:45.181Z,-1.20
2018-02-15T06:49:45.123Z,-1.25
2018-02-15T06:51:38.540Z,-1.15
2018-02-15T06:52:38.490Z,-1.18
2018-02-15T06:54:31.853Z,-1.13
2018-02-15T06:55:31.872Z,-1.12
2018-02-15T06:57:25.483Z,-1.12
2018-02-15T06:58:25.272Z,-1.13
2018-02-15T07:00:18.573Z,-1.12
2018-02-15T07:01:18.593Z,-1.07
2018-02-15T07:03:12.010Z,-1.09
2018-02-15T07:04:11.913Z,-1.02
2018-02-15T07:06:05.343Z,-1.05
2018-02-15T07:07:05.245Z,-1.09
2018-02-15T07:08:58.711Z,-1.02
2018-02-15T07:09:58.721Z,-0.99
2018-02-15T07:11:52.146Z,-0.99
2018-02-15T07:12:52.035Z,-0.94
2018-02-15T07:14:45.466Z,-0.89
2018-02-15T07:15:45.444Z,-0.84
2018-02-15T07:17:38.861Z,-0.87
2018-02-15T07:18:38.813Z,-0.91
2018-02-15T07:20:32.298Z,-0.73
2018-02-15T07:21:32.190Z,-0.75
2018-02-15T07:23:25.709Z,-0.78
2018-02-15T07:24:25.572Z,-0.81
2018-02-15T07:26:18.992Z,-0.77
2018-02-15T07:27:18.922Z,-0.73
2018-02-15T07:29:12.423Z,-0.73
2018-02-15T07:30:12.348Z,-0.86
2018-02-15T07:32:05.739Z,-0.77
2018-02-15T07:33:05.770Z,-0.70
2018-02-15T07:34:59.123Z,-0.75
2018-02-15T07:35:59.113Z,-0.72
2018-02-15T07:37:52.526Z,-0.70
2018-02-15T07:38:52.472Z,-0.69
2018-02-15T07:40:45.978Z,-0.73
2018-02-15T07:41:45.901Z,-0.66
2018-02-15T07:43:39.282Z,-0.59
2018-02-15T07:44:39.266Z,-0.63
2018-02-15T07:46:32.700Z,-0.52
2018-02-15T07:47:32.747Z,-0.57
2018-02-15T07:49:26.150Z,-0.57
2018-02-15T07:50:26.064Z,-0.54
2018-02-15T07:52:19.427Z,-0.44
2018-02-15T07:53:19.392Z,-0.42
2018-02-15T07:55:12.889Z,-0.42
2018-02-15T07:56:12.803Z,-0.45
2018-02-15T07:58:07.158Z,-0.37
2018-02-15T07:59:07.190Z,-0.45
2018-02-15T08:01:00.575Z,-0.45
2018-02-15T08:02:00.510Z,-0.39
2018-02-15T08:03:54.008Z,-0.24
2018-02-15T08:04:53.949Z,-0.27
2018-02-15T08:06:47.420Z,-0.23
2018-02-15T08:07:47.313Z,-0.24
2018-02-15T08:09:41.825Z,-0.24
2018-02-15T08:10:41.811Z,-0.23
2018-02-15T08:12:35.136Z,-0.30
2018-02-15T08:13:35.117Z,-0.23
2018-02-15T08:15:28.575Z,-0.13
2018-02-15T08:16:28.571Z,-0.16
2018-02-15T08:18:22.904Z,-0.05
2018-02-15T08:19:22.838Z,-0.01
2018-02-15T08:21:16.203Z,-0.11
2018-02-15T08:22:16.354Z,-0.08
2018-02-15T08:24:09.668Z,-0.04
2018-02-15T08:25:09.612Z,-0.08
2018-02-15T08:27:03.025Z,-0.04
2018-02-15T08:28:03.012Z,0.05
2018-02-15T08:29:56.408Z,-0.01
2018-02-15T08:30:56.335Z,0.07
2018-02-15T08:32:51.019Z,0.13
2018-02-15T08:33:50.763Z,0.21
2018-02-15T08:35:45.167Z,0.21
2018-02-15T08:36:45.189Z,0.18
2018-02-15T08:38:39.611Z,0.13
2018-02-15T08:39:39.505Z,0.15
2018-02-15T08:41:32.910Z,0.25
2018-02-15T08:42:32.920Z,0.21
2018-02-15T08:44:26.312Z,0.20
2018-02-15T08:45:26.294Z,0.31
2018-02-15T08:47:19.754Z,0.31
2018-02-15T08:48:19.748Z,0.38
2018-02-15T08:50:14.112Z,0.28
2018-02-15T08:51:14.139Z,0.42
2018-02-15T08:53:07.529Z,0.48
2018-02-15T08:54:07.487Z,0.49
2018-02-15T08:56:00.929Z,0.53
2018-02-15T08:57:00.914Z,0.49
2018-02-15T08:58:54.365Z,0.46
2018-02-15T08:59:54.365Z,0.38
2018-02-15T09:01:48.848Z,0.52
2018-02-15T09:02:48.794Z,0.49
2018-02-15T09:04:42.185Z,0.43
2018-02-15T09:05:42.132Z,0.48
2018-02-15T09:07:36.503Z,0.58
2018-02-15T09:08:36.537Z,0.51
2018-02-15T09:10:30.907Z,0.57
2018-02-15T09:11:30.904Z,0.52
2018-02-15T09:13:24.308Z,0.60
2018-02-15T09:14:24.278Z,0.67
2018-02-15T09:16:17.651Z,0.71
2018-02-15T09:17:17.659Z,0.80
2018-02-15T09:19:11.075Z,0.76
2018-02-15T09:20:11.003Z,0.57
2018-02-15T09:22:04.468Z,0.31
2018-02-15T09:23:04.411Z,0.38
2018-02-15T09:24:57.846Z,0.52
2018-02-15T09:25:57.763Z,0.60
2018-02-15T09:27:51.244Z,0.52
2018-02-15T09:28:51.135Z,0.33
2018-02-15T09:30:44.678Z,0.23
2018-02-15T09:31:44.653Z,0.25
2018-02-15T09:33:38.113Z,0.42
2018-02-15T09:34:37.922Z,0.41
2018-02-15T09:36:31.344Z,0.34
2018-02-15T09:37:31.307Z,0.25
2018-02-15T09:39:24.916Z,0.43
2018-02-15T09:40:24.677Z,0.46
2018-02-15T09:42:18.085Z,0.53
2018-02-15T09:43:18.123Z,0.60
2018-02-15T09:45:11.465Z,0.60
2018-02-15T09:46:11.436Z,0.64
2018-02-15T09:48:04.812Z,0.52
2018-02-15T09:49:04.811Z,0.30
2018-02-15T09:50:58.206Z,0.18
2018-02-15T09:51:58.189Z,0.21
2018-02-15T09:53:51.568Z,0.38
2018-02-15T09:54:51.566Z,0.48
2018-02-15T09:56:44.957Z,0.46
2018-02-15T09:57:44.941Z,0.68
2018-02-15T09:59:38.333Z,0.67
2018-02-15T10:00:38.315Z,0.72
2018-02-15T10:02:32.735Z,0.86
2018-02-15T10:03:32.700Z,0.98
2018-02-15T10:05:26.096Z,1.00
2018-02-15T10:06:26.080Z,1.08
2018-02-15T10:08:19.488Z,0.98
2018-02-15T10:09:19.465Z,1.06
2018-02-15T10:11:12.859Z,1.07
2018-02-15T10:12:12.842Z,1.12
2018-02-15T10:14:06.215Z,1.16
2018-02-15T10:15:06.216Z,1.21
2018-02-15T10:16:59.120Z,1.22
2018-02-15T10:17:59.099Z,1.34
2018-02-15T10:19:52.476Z,1.21
2018-02-15T10:20:52.478Z,1.22
2018-02-15T10:22:45.420Z,1.00
2018-02-15T10:23:45.360Z,1.07
2018-02-15T10:25:38.734Z,1.03
2018-02-15T10:26:38.736Z,1.07
2018-02-15T10:28:32.140Z,1.14
2018-02-15T10:29:32.123Z,1.19
2018-02-15T10:31:25.500Z,1.32
2018-02-15T10:32:25.503Z,1.40
2018-02-15T10:34:18.897Z,1.29
2018-02-15T10:35:18.879Z,1.19
2018-02-15T10:37:12.265Z,1.32
2018-02-15T10:38:12.255Z,1.32
2018-02-15T10:40:05.655Z,1.33
2018-02-15T10:41:05.638Z,1.22
2018-02-15T10:42:59.015Z,1.42
2018-02-15T10:43:59.017Z,1.39
2018-02-15T10:45:52.447Z,1.43
2018-02-15T10:46:52.395Z,1.55
2018-02-15T10:48:45.278Z,1.46
2018-02-15T10:49:45.278Z,1.44
2018-02-15T10:51:38.674Z,1.62
2018-02-15T10:52:38.657Z,1.61
2018-02-15T10:54:32.086Z,1.64
2018-02-15T10:55:32.053Z,1.64
2018-02-15T10:57:25.432Z,1.58
2018-02-15T10:58:25.432Z,1.75
2018-02-15T11:00:18.856Z,1.90
2018-02-15T11:01:18.832Z,1.99
2018-02-15T11:03:12.264Z,2.13
2018-02-15T11:04:12.263Z,2.10
2018-02-15T11:06:05.684Z,2.08
2018-02-15T11:07:05.646Z,2.22
2018-02-15T11:08:59.065Z,2.38
2018-02-15T11:09:59.067Z,2.46
2018-02-15T11:11:52.459Z,2.67
2018-02-15T11:12:52.447Z,2.73
2018-02-15T11:14:45.820Z,2.76
2018-02-15T11:15:45.842Z,2.92
2018-02-15T11:17:39.361Z,3.05
2018-02-15T11:18:39.200Z,3.00
2018-02-15T11:20:32.575Z,2.94
2018-02-15T11:21:32.593Z,3.00
2018-02-15T11:23:25.958Z,3.12
2018-02-15T11:24:25.978Z,3.13
2018-02-15T11:26:19.366Z,3.12
2018-02-15T11:27:19.332Z,3.10
2018-02-15T11:29:13.768Z,3.25
2018-02-15T11:30:13.771Z,2.98
2018-02-15T11:32:08.276Z,2.95
2018-02-15T11:33:08.093Z,3.09
2018-02-15T11:35:01.552Z,3.00
2018-02-15T11:36:01.528Z,2.98
2018-02-15T11:37:54.922Z,3.07
2018-02-15T11:38:54.918Z,3.16
2018-02-15T11:40:47.818Z,2.95
2018-02-15T11:41:47.786Z,2.97
2018-02-15T11:43:41.190Z,2.92
2018-02-15T11:44:41.161Z,2.85
2018-02-15T11:46:35.585Z,2.69
2018-02-15T11:47:35.563Z,2.56
2018-02-15T11:49:28.953Z,2.61
2018-02-15T11:50:28.949Z,2.59
2018-02-15T11:52:23.365Z,2.79
2018-02-15T11:53:23.343Z,2.84
2018-02-15T11:55:17.754Z,2.79
2018-02-15T11:56:17.709Z,2.76
2018-02-15T11:58:11.108Z,2.85
2018-02-15T11:59:11.089Z,2.88
2018-02-15T12:01:04.499Z,2.77
2018-02-15T12:02:04.474Z,2.92
2018-02-15T12:03:58.886Z,3.07
2018-02-15T12:04:58.911Z,3.13
2018-02-15T12:06:53.296Z,3.16
2018-02-15T12:07:53.267Z,3.02
2018-02-15T12:09:47.689Z,3.02
2018-02-15T12:10:47.716Z,3.05
2018-02-15T12:12:41.086Z,3.05
2018-02-15T12:13:41.079Z,2.94
2018-02-15T12:15:34.444Z,2.92
2018-02-15T12:16:34.437Z,3.03
2018-02-15T12:18:27.841Z,3.15
2018-02-15T12:19:27.811Z,3.21
2018-02-15T12:21:21.231Z,3.02
2018-02-15T12:22:21.240Z,3.09
2018-02-15T12:24:14.603Z,3.15
2018-02-15T12:25:14.590Z,2.94
2018-02-15T12:27:09.034Z,2.94
2018-02-15T12:28:08.991Z,2.97
2018-02-15T12:30:02.350Z,2.92
2018-02-15T12:31:02.353Z,2.88
2018-02-15T12:32:56.803Z,2.94
2018-02-15T12:33:56.781Z,2.89
2018-02-15T12:35:50.141Z,3.03
2018-02-15T12:36:50.138Z,2.92
2018-02-15T12:38:43.558Z,2.95
2018-02-15T12:39:43.548Z,2.95
2018-02-15T12:41:37.923Z,2.88
2018-02-15T12:42:37.905Z,2.85
2018-02-15T12:44:31.316Z,2.91
2018-02-15T12:45:31.305Z,2.79
2018-02-15T12:47:25.715Z,2.88
2018-02-15T12:48:25.673Z,2.92
2018-02-15T12:50:19.083Z,2.88
2018-02-15T12:51:19.043Z,2.81
2018-02-15T12:53:13.464Z,2.77
2018-02-15T12:54:13.438Z,2.73
2018-02-15T12:56:06.844Z,2.73
2018-02-15T12:57:06.849Z,2.87
2018-02-15T12:59:00.267Z,2.92
2018-02-15T13:00:00.268Z,2.91
2018-02-15T13:01:53.662Z,2.87
2018-02-15T13:02:53.646Z,2.88
2018-02-15T13:04:46.530Z,2.74
2018-02-15T13:05:46.531Z,2.76
2018-02-15T13:07:39.445Z,2.69
2018-02-15T13:08:39.413Z,2.79
2018-02-15T13:10:32.808Z,2.85
2018-02-15T13:11:32.791Z,2.79
2018-02-15T13:13:26.171Z,2.77
2018-02-15T13:14:26.171Z,2.91
2018-02-15T13:16:19.569Z,2.94
2018-02-15T13:17:19.549Z,2.95
2018-02-15T13:19:12.432Z,2.95
2018-02-15T13:20:12.438Z,2.87
2018-02-15T13:22:05.829Z,3.05
2018-02-15T13:23:05.816Z,3.05
2018-02-15T13:24:59.191Z,3.07
2018-02-15T13:25:59.194Z,3.10
2018-02-15T13:27:52.636Z,2.92
2018-02-15T13:28:52.621Z,2.94
2018-02-15T13:30:45.999Z,2.91
2018-02-15T13:31:46.001Z,3.06
2018-02-15T13:33:39.393Z,3.05
2018-02-15T13:34:39.379Z,2.98
2018-02-15T13:36:32.754Z,2.89
2018-02-15T13:37:32.756Z,2.91
2018-02-15T13:39:26.152Z,3.00
2018-02-15T13:40:26.136Z,3.06
2018-02-15T13:42:19.520Z,3.05
2018-02-15T13:43:19.520Z,3.02
2018-02-15T13:45:14.089Z,2.91
2018-02-15T13:46:13.984Z,2.91
2018-02-15T13:48:07.462Z,2.91
2018-02-15T13:49:07.380Z,2.79
2018-02-15T13:51:00.762Z,2.95
2018-02-15T13:52:00.743Z,2.88
2018-02-15T13:53:54.181Z,2.92
2018-02-15T13:54:54.123Z,2.87
2018-02-15T13:56:47.504Z,2.97
2018-02-15T13:57:47.501Z,2.94
2018-02-15T13:59:40.404Z,3.00
2018-02-15T14:00:40.384Z,2.89
2018-02-15T14:02:33.761Z,2.89
2018-02-15T14:03:33.763Z,2.85
2018-02-15T14:05:26.668Z,2.88
2018-02-15T14:06:26.707Z,2.89
2018-02-15T14:08:20.047Z,2.92
2018-02-15T14:09:20.044Z,2.89
2018-02-15T14:11:13.450Z,3.00
2018-02-15T14:12:13.447Z,2.92
2018-02-15T14:14:06.829Z,3.09
2018-02-15T14:15:06.814Z,3.03
2018-02-15T14:17:00.294Z,3.21
2018-02-15T14:18:00.285Z,3.16
2018-02-15T14:19:53.676Z,2.97
2018-02-15T14:20:53.657Z,3.06
2018-02-15T14:22:47.035Z,3.07
2018-02-15T14:23:47.036Z,3.13
2018-02-15T14:25:40.434Z,3.07
2018-02-15T14:26:40.422Z,3.13
2018-02-15T14:28:33.870Z,2.98
2018-02-15T14:29:33.845Z,3.07
2018-02-15T14:31:27.214Z,3.09
2018-02-15T14:32:27.199Z,3.15
2018-02-15T14:34:21.611Z,3.18
2018-02-15T14:35:21.608Z,3.16
2018-02-15T14:37:14.982Z,3.09
2018-02-15T14:38:14.961Z,3.12
2018-02-15T14:40:08.415Z,3.06
2018-02-15T14:41:08.385Z,3.18
2018-02-15T14:43:01.780Z,3.18
2018-02-15T14:44:01.733Z,3.13
2018-02-15T14:45:55.134Z,3.13
2018-02-15T14:46:55.109Z,3.21
2018-02-15T14:48:48.486Z,3.03
2018-02-15T14:49:48.499Z,3.09
2018-02-15T14:51:41.930Z,3.06
2018-02-15T14:52:41.883Z,3.09
2018-02-15T14:54:35.282Z,3.07
2018-02-15T14:55:35.259Z,2.92
2018-02-15T14:57:29.677Z,2.91
2018-02-15T14:58:29.691Z,3.10
2018-02-15T15:00:24.064Z,3.03
2018-02-15T15:01:24.035Z,3.05
2018-02-15T15:03:17.457Z,3.07
2018-02-15T15:04:17.415Z,3.20
2018-02-15T15:06:11.831Z,3.15
2018-02-15T15:07:11.823Z,3.09
2018-02-15T15:09:05.199Z,3.05
2018-02-15T15:10:05.202Z,3.15
2018-02-15T15:11:58.570Z,3.13
2018-02-15T15:12:58.602Z,3.03
2018-02-15T15:14:51.968Z,3.00
2018-02-15T15:15:51.947Z,3.09
2018-02-15T15:17:45.346Z,3.07
2018-02-15T15:18:45.342Z,3.20
2018-02-15T15:20:39.747Z,3.07
2018-02-15T15:21:39.785Z,3.09
2018-02-15T15:23:34.111Z,3.06
2018-02-15T15:24:34.103Z,3.03
2018-02-15T15:26:27.553Z,2.91
2018-02-15T15:27:27.519Z,3.02
2018-02-15T15:29:20.905Z,2.95
2018-02-15T15:30:20.875Z,2.94
2018-02-15T15:32:15.314Z,2.94
2018-02-15T15:33:15.275Z,2.95
2018-02-15T15:35:09.705Z,3.06
2018-02-15T15:36:09.656Z,2.94
2018-02-15T15:38:03.083Z,3.03
2018-02-15T15:39:03.039Z,2.97
2018-02-15T15:40:57.465Z,2.97
2018-02-15T15:41:57.460Z,3.05
2018-02-15T15:43:50.842Z,2.92
2018-02-15T15:44:50.835Z,2.91
2018-02-15T15:46:44.235Z,2.94
2018-02-15T15:47:44.208Z,2.92
2018-02-15T15:49:38.581Z,2.94
2018-02-15T15:50:38.607Z,3.07
2018-02-15T15:52:32.007Z,3.10
2018-02-15T15:53:31.968Z,3.10
2018-02-15T15:55:25.358Z,3.05
2018-02-15T15:56:25.346Z,3.12
2018-02-15T15:58:18.761Z,3.15
2018-02-15T15:59:18.731Z,3.24
2018-02-15T16:01:12.111Z,3.23
2018-02-15T16:02:12.114Z,3.13
2018-02-15T16:04:05.520Z,3.24
2018-02-15T16:05:05.504Z,3.09
2018-02-15T16:06:59.903Z,3.12
2018-02-15T16:07:59.874Z,3.07
2018-02-15T16:09:53.273Z,3.16
2018-02-15T16:10:53.257Z,3.15
2018-02-15T16:12:46.679Z,3.16
2018-02-15T16:13:46.635Z,3.03
2018-02-15T16:15:40.024Z,3.21
2018-02-15T16:16:40.021Z,3.13
2018-02-15T16:18:33.411Z,3.21
2018-02-15T16:19:33.401Z,3.13
2018-02-15T16:21:27.805Z,3.03
2018-02-15T16:22:27.781Z,3.06
2018-02-15T16:24:21.175Z,3.05
2018-02-15T16:25:21.160Z,3.13
2018-02-15T16:27:14.550Z,3.07
2018-02-15T16:28:14.536Z,3.15
2018-02-15T16:30:07.930Z,3.20
2018-02-15T16:31:07.913Z,3.21
2018-02-15T16:33:01.299Z,3.21
2018-02-15T16:34:01.294Z,3.21
2018-02-15T16:35:54.690Z,3.21
2018-02-15T16:36:54.692Z,3.18
2018-02-15T16:38:48.082Z,3.20
2018-02-15T16:39:48.085Z,3.24
2018-02-15T16:41:41.474Z,3.28
2018-02-15T16:42:41.458Z,3.25
2018-02-15T16:44:34.820Z,3.20
2018-02-15T16:45:34.818Z,3.20
2018-02-15T16:47:28.218Z,3.33
2018-02-15T16:48:28.205Z,3.31
2018-02-15T16:50:21.585Z,3.27
2018-02-15T16:51:21.585Z,3.23
2018-02-15T16:53:14.989Z,3.30
2018-02-15T16:54:14.967Z,3.40
2018-02-15T16:56:08.392Z,3.39
2018-02-15T16:57:08.354Z,3.36
2018-02-15T16:59:01.732Z,3.42
2018-02-15T17:00:01.743Z,3.40
2018-02-15T17:01:55.154Z,3.44
2018-02-15T17:02:55.125Z,3.40
2018-02-15T17:04:48.506Z,3.28
2018-02-15T17:05:48.497Z,3.39
2018-02-15T17:07:41.902Z,3.52
2018-02-15T17:08:41.894Z,3.40
2018-02-15T17:10:35.279Z,3.43
2018-02-15T17:11:35.271Z,3.44
2018-02-15T17:13:28.674Z,3.53
2018-02-15T17:14:28.652Z,3.47
2018-02-15T17:16:22.061Z,3.49
2018-02-15T17:17:22.033Z,3.43
2018-02-15T17:19:15.438Z,3.43
2018-02-15T17:20:15.428Z,3.58
2018-02-15T17:22:08.796Z,3.46
2018-02-15T17:23:08.796Z,3.42
2018-02-15T17:25:02.191Z,3.44
2018-02-15T17:26:02.171Z,3.44
2018-02-15T17:27:55.556Z,3.49
2018-02-15T17:28:55.553Z,3.50
2018-02-15T17:30:48.952Z,3.58
2018-02-15T17:31:48.939Z,3.58
2018-02-15T17:33:42.335Z,3.61
2018-02-15T17:34:42.313Z,3.52
2018-02-15T17:36:35.700Z,3.60
2018-02-15T17:37:35.693Z,3.61
2018-02-15T17:39:29.094Z,3.62
2018-02-15T17:40:29.078Z,3.60
2018-02-15T17:42:22.452Z,3.64
2018-02-15T17:43:22.455Z,3.70
2018-02-15T17:45:15.852Z,3.61
2018-02-15T17:46:15.840Z,3.65
2018-02-15T17:48:09.219Z,3.64
2018-02-15T17:49:09.221Z,3.72
2018-02-15T17:51:02.629Z,3.70
2018-02-15T17:52:02.623Z,3.70
2018-02-15T17:53:55.989Z,3.64
2018-02-15T17:54:55.989Z,3.67
2018-02-15T17:56:49.390Z,3.68
2018-02-15T17:57:49.370Z,3.71
2018-02-15T17:59:42.755Z,3.76
2018-02-15T18:00:42.755Z,3.82
2018-02-15T18:02:36.187Z,3.71
2018-02-15T18:03:36.147Z,3.72
2018-02-15T18:05:29.517Z,3.80
2018-02-15T18:06:29.541Z,3.76
2018-02-15T18:08:22.959Z,3.82
2018-02-15T18:09:22.940Z,3.75
2018-02-15T18:11:16.341Z,3.70
2018-02-15T18:12:16.323Z,3.75
2018-02-15T18:14:09.720Z,3.80
2018-02-15T18:15:09.699Z,3.82
2018-02-15T18:17:03.102Z,3.79
2018-02-15T18:18:03.091Z,3.76
2018-02-15T18:19:56.511Z,3.83
2018-02-15T18:20:56.471Z,3.72
2018-02-15T18:22:49.863Z,3.82
2018-02-15T18:23:49.846Z,3.83
2018-02-15T18:25:43.225Z,3.88
2018-02-15T18:26:43.232Z,3.85
2018-02-15T18:28:36.636Z,3.86
2018-02-15T18:29:36.609Z,3.86
2018-02-15T18:31:30.084Z,3.83
2018-02-15T18:32:30.079Z,3.83
2018-02-15T18:34:23.519Z,3.92
2018-02-15T18:35:23.461Z,3.96
2018-02-15T18:37:16.842Z,3.89
2018-02-15T18:38:16.842Z,3.90
2018-02-15T18:40:10.292Z,3.94
2018-02-15T18:41:10.274Z,3.90
2018-02-15T18:43:03.655Z,3.89
2018-02-15T18:44:03.656Z,3.89
2018-02-15T18:45:57.049Z,3.92
2018-02-15T18:46:57.032Z,3.89
2018-02-15T18:48:50.414Z,3.94
2018-02-15T18:49:50.412Z,3.96
2018-02-15T18:51:43.823Z,3.97
2018-02-15T18:52:43.828Z,3.89
2018-02-15T18:54:37.213Z,3.97
2018-02-15T18:55:37.200Z,3.92
2018-02-15T18:57:30.565Z,3.94